createdAt,value
2023-05-10T00:02:17.194Z,40.61
2023-05-10T00:04:45.234Z,40.55
2023-05-10T00:07:13.306Z,40.65
2023-05-10T00:09:41.477Z,40.67
2023-05-10T00:12:09.552Z,40.61
2023-05-10T00:14:37.519Z,40.61
2023-05-10T00:17:05.505Z,40.76
2023-05-10T00:19:33.672Z,40.67
2023-05-10T00:22:01.734Z,40.61
2023-05-10T00:24:29.995Z,40.67
2023-05-10T00:26:58.075Z,40.64
2023-05-10T00:29:26.046Z,40.79
2023-05-10T00:31:54.660Z,40.73
2023-05-10T00:34:22.671Z,40.82
2023-05-10T00:36:50.709Z,40.87
2023-05-10T00:39:18.779Z,40.91
2023-05-10T00:41:47.069Z,40.93
2023-05-10T00:44:15.154Z,40.94
2023-05-10T00:46:43.666Z,40.89
2023-05-10T00:49:12.277Z,41.09
2023-05-10T00:51:40.602Z,41.09
2023-05-10T00:54:08.851Z,41.14
2023-05-10T00:56:37.888Z,41.11
2023-05-10T00:59:05.960Z,41.20
2023-05-10T01:01:34.348Z,41.19
2023-05-10T01:04:04.217Z,41.32
2023-05-10T01:06:32.416Z,41.41
2023-05-10T01:09:00.500Z,41.38
2023-05-10T01:11:28.781Z,41.50
2023-05-10T01:13:58.874Z,41.54
2023-05-10T01:16:28.046Z,41.56
2023-05-10T01:18:56.578Z,41.64
2023-05-10T01:21:39.325Z,41.75
2023-05-10T01:24:44.113Z,41.90
2023-05-10T01:27:49.157Z,41.95
2023-05-10T01:30:43.089Z,42.18
2023-05-10T01:33:16.963Z,42.32
2023-05-10T01:36:04.314Z,42.35
2023-05-10T01:38:52.911Z,42.49
2023-05-10T01:41:50.260Z,42.64
2023-05-10T01:44:18.959Z,42.73
2023-05-10T01:46:58.898Z,42.73
2023-05-10T01:49:32.014Z,42.87
2023-05-10T01:52:07.532Z,42.77
2023-05-10T01:54:39.792Z,42.90
2023-05-10T01:57:11.549Z,43.02
2023-05-10T01:59:44.646Z,42.96
2023-05-10T02:02:14.658Z,42.91
2023-05-10T02:04:44.094Z,42.99
2023-05-10T02:07:14.296Z,43.00
2023-05-10T02:09:48.515Z,43.00
2023-05-10T02:12:19.025Z,43.05
2023-05-10T02:14:48.962Z,43.04
2023-05-10T02:17:17.956Z,43.03
2023-05-10T02:19:48.481Z,42.99
2023-05-10T02:22:18.124Z,43.09
2023-05-10T02:24:48.286Z,43.03
2023-05-10T02:27:18.409Z,43.16
2023-05-10T02:29:48.009Z,43.14
2023-05-10T02:32:18.908Z,43.21
2023-05-10T02:34:53.022Z,43.25
2023-05-10T02:37:23.067Z,43.26
2023-05-10T02:39:53.606Z,43.20
2023-05-10T02:42:27.513Z,43.27
2023-05-10T02:45:00.668Z,43.21
2023-05-10T02:47:30.246Z,43.23
2023-05-10T02:49:58.476Z,43.05
2023-05-10T02:52:30.598Z,43.01
2023-05-10T02:55:04.420Z,42.96
2023-05-10T02:57:40.014Z,42.96
2023-05-10T03:00:08.567Z,42.86
2023-05-10T03:02:37.590Z,42.74
2023-05-10T03:05:06.568Z,42.65
2023-05-10T03:07:35.138Z,42.58
2023-05-10T03:10:04.580Z,42.40
2023-05-10T03:12:49.748Z,42.34
2023-05-10T03:15:40.039Z,42.26
2023-05-10T03:18:16.730Z,42.34
2023-05-10T03:20:51.633Z,42.29
2023-05-10T03:23:19.996Z,42.26
2023-05-10T03:25:50.554Z,42.32
2023-05-10T03:28:20.170Z,42.20
2023-05-10T03:30:50.250Z,42.15
2023-05-10T03:33:18.359Z,42.12
2023-05-10T03:35:47.882Z,42.02
2023-05-10T03:38:16.012Z,42.11
2023-05-10T03:40:44.023Z,41.91
2023-05-10T03:43:12.034Z,41.83
2023-05-10T03:45:40.101Z,41.68
2023-05-10T03:48:08.401Z,41.67
2023-05-10T03:50:36.550Z,41.50
2023-05-10T03:53:04.726Z,41.51
2023-05-10T03:55:35.662Z,41.57
2023-05-10T03:58:03.831Z,41.40
2023-05-10T04:00:32.682Z,41.43
2023-05-10T04:03:01.888Z,41.32
2023-05-10T04:05:30.555Z,41.22
2023-05-10T04:07:58.578Z,41.18
2023-05-10T04:10:26.651Z,41.09
2023-05-10T04:12:54.816Z,41.02
2023-05-10T04:15:22.895Z,40.94
2023-05-10T04:17:51.568Z,40.30
2023-05-10T04:20:19.776Z,39.30
2023-05-10T04:22:48.025Z,38.69
2023-05-10T04:25:16.102Z,37.41
2023-05-10T04:27:44.712Z,36.23
2023-05-10T04:30:13.298Z,35.42
2023-05-10T04:32:41.326Z,33.62
2023-05-10T04:35:11.170Z,32.93
2023-05-10T04:37:39.123Z,31.60
2023-05-10T04:40:08.280Z,30.56
2023-05-10T04:42:36.266Z,29.65
2023-05-10T04:45:04.884Z,28.70
2023-05-10T04:47:33.727Z,27.97
2023-05-10T04:50:02.003Z,27.16
2023-05-10T04:52:30.084Z,26.28
2023-05-10T04:54:58.154Z,25.66
2023-05-10T04:57:26.125Z,25.15
2023-05-10T04:59:54.118Z,24.77
2023-05-10T05:02:22.182Z,24.01
2023-05-10T05:04:50.845Z,22.74
2023-05-10T05:07:18.886Z,22.74
2023-05-10T05:09:46.884Z,22.76
2023-05-10T05:12:15.372Z,22.52
2023-05-10T05:14:43.538Z,22.69
2023-05-10T05:17:11.613Z,22.18
2023-05-10T05:19:39.679Z,22.10
2023-05-10T05:22:09.017Z,22.89
2023-05-10T05:24:39.261Z,22.25
2023-05-10T05:27:07.675Z,22.40
2023-05-10T05:29:36.023Z,21.85
2023-05-10T05:32:04.475Z,21.51
2023-05-10T05:34:32.714Z,21.07
2023-05-10T05:37:00.879Z,21.00
2023-05-10T05:39:28.949Z,21.23
2023-05-10T05:41:57.063Z,21.00
2023-05-10T05:44:25.090Z,20.85
2023-05-10T05:46:53.163Z,20.53
2023-05-10T05:49:21.279Z,20.14
2023-05-10T05:51:50.838Z,20.11
2023-05-10T05:54:18.910Z,20.47
2023-05-10T05:56:46.878Z,20.74
2023-05-10T05:59:14.862Z,20.71
2023-05-10T06:01:42.932Z,21.26
2023-05-10T06:04:11.600Z,21.20
2023-05-10T06:06:39.776Z,21.24
2023-05-10T06:09:07.715Z,20.88
2023-05-10T06:11:35.968Z,20.45
2023-05-10T06:14:05.742Z,20.81
2023-05-10T06:16:34.115Z,20.78
2023-05-10T06:19:02.462Z,20.80
2023-05-10T06:21:31.164Z,20.78
2023-05-10T06:23:59.348Z,20.32
2023-05-10T06:26:27.410Z,20.56
2023-05-10T06:28:55.490Z,20.34
2023-05-10T06:31:23.640Z,20.27
2023-05-10T06:33:52.362Z,19.88
2023-05-10T06:36:21.394Z,19.75
2023-05-10T06:38:49.765Z,20.30
2023-05-10T06:41:18.302Z,20.73
2023-05-10T06:43:46.549Z,20.90
2023-05-10T06:46:14.664Z,21.23
2023-05-10T06:48:42.711Z,21.76
2023-05-10T06:51:10.780Z,22.04
2023-05-10T06:53:38.768Z,22.09
2023-05-10T06:56:06.933Z,22.50
2023-05-10T06:58:34.946Z,22.90
2023-05-10T07:01:04.725Z,22.97
2023-05-10T07:03:33.435Z,23.12
2023-05-10T07:06:04.312Z,23.31
2023-05-10T07:08:33.033Z,23.63
2023-05-10T07:11:05.898Z,23.75
2023-05-10T07:13:35.207Z,23.48
2023-05-10T07:16:04.116Z,23.61
2023-05-10T07:18:32.336Z,23.87
2023-05-10T07:21:00.514Z,24.27
2023-05-10T07:23:29.128Z,24.34
2023-05-10T07:25:58.732Z,24.60
2023-05-10T07:28:26.986Z,24.39
2023-05-10T07:30:55.013Z,24.27
2023-05-10T07:33:23.157Z,24.23
2023-05-10T07:35:51.413Z,24.42
2023-05-10T07:38:19.480Z,24.52
2023-05-10T07:40:47.472Z,25.06
2023-05-10T07:43:15.826Z,25.00
2023-05-10T07:45:44.581Z,24.93
2023-05-10T07:48:12.808Z,25.06
2023-05-10T07:50:40.953Z,24.86
2023-05-10T07:53:09.020Z,25.14
2023-05-10T07:55:37.605Z,24.83
2023-05-10T07:58:05.691Z,24.65
2023-05-10T08:00:33.968Z,24.46
2023-05-10T08:03:02.167Z,24.57
2023-05-10T08:05:30.599Z,24.16
2023-05-10T08:07:58.635Z,24.50
2023-05-10T08:10:26.952Z,24.26
2023-05-10T08:12:55.016Z,24.44
2023-05-10T08:15:23.204Z,24.84
2023-05-10T08:17:51.647Z,25.50
2023-05-10T08:20:20.306Z,25.48
2023-05-10T08:22:49.940Z,25.03
2023-05-10T08:25:19.857Z,25.23
2023-05-10T08:27:48.187Z,24.23
2023-05-10T08:30:16.334Z,24.50
2023-05-10T08:32:44.398Z,24.71
2023-05-10T08:35:12.384Z,24.45
2023-05-10T08:37:40.453Z,24.76
2023-05-10T08:40:12.707Z,25.06
2023-05-10T08:42:46.675Z,25.24
2023-05-10T08:45:15.896Z,24.91
2023-05-10T08:47:44.552Z,25.15
2023-05-10T08:50:13.059Z,24.83
2023-05-10T08:52:42.576Z,24.67
2023-05-10T08:55:10.863Z,24.99
2023-05-10T08:57:39.335Z,24.66
2023-05-10T09:00:09.529Z,24.28
2023-05-10T09:02:38.356Z,24.02
2023-05-10T09:05:07.300Z,23.87
2023-05-10T09:07:36.357Z,23.14
2023-05-10T09:10:06.399Z,23.27
2023-05-10T09:12:34.825Z,23.82
2023-05-10T09:15:03.506Z,23.41
2023-05-10T09:17:31.863Z,23.02
2023-05-10T09:20:08.145Z,23.14
2023-05-10T09:22:36.326Z,23.64
2023-05-10T09:25:09.612Z,23.12
2023-05-10T09:27:39.747Z,23.05
2023-05-10T09:30:09.095Z,23.44
2023-05-10T09:32:44.999Z,23.75
2023-05-10T09:35:19.264Z,23.98
2023-05-10T09:37:50.369Z,24.18
2023-05-10T09:40:29.259Z,23.93
2023-05-10T09:42:59.405Z,23.99
2023-05-10T09:45:30.427Z,24.29
2023-05-10T09:48:00.363Z,24.03
2023-05-10T09:50:29.632Z,23.84
2023-05-10T09:53:00.145Z,24.05
2023-05-10T09:55:47.831Z,24.04
2023-05-10T09:58:16.649Z,23.75
2023-05-10T10:00:48.491Z,23.86
2023-05-10T10:03:21.937Z,23.73
2023-05-10T10:05:50.461Z,24.25
2023-05-10T10:08:18.801Z,23.68
2023-05-10T10:10:48.142Z,24.04
2023-05-10T10:13:16.895Z,24.16
2023-05-10T10:15:45.903Z,24.38
2023-05-10T10:18:18.054Z,24.37
2023-05-10T10:20:47.036Z,24.11
2023-05-10T10:23:17.388Z,24.63
2023-05-10T10:25:49.955Z,23.69
2023-05-10T10:28:36.856Z,24.12
2023-05-10T10:31:35.812Z,24.10
2023-05-10T10:34:07.948Z,23.69
2023-05-10T10:36:46.560Z,24.11
2023-05-10T10:39:15.886Z,24.39
2023-05-10T10:41:54.441Z,24.99
2023-05-10T10:44:34.944Z,25.04
2023-05-10T10:47:13.460Z,24.45
2023-05-10T10:49:44.710Z,24.57
2023-05-10T10:52:47.656Z,24.80
2023-05-10T10:55:19.667Z,23.80
2023-05-10T10:57:54.664Z,24.09
2023-05-10T11:00:25.582Z,24.21
2023-05-10T11:03:08.728Z,24.97
2023-05-10T11:05:42.799Z,24.28
2023-05-10T11:08:14.069Z,23.58
2023-05-10T11:10:53.280Z,23.78
2023-05-10T11:13:42.067Z,24.68
2023-05-10T11:16:26.649Z,24.17
2023-05-10T11:18:55.243Z,23.28
2023-05-10T11:21:23.832Z,24.10
2023-05-10T11:23:58.672Z,23.69
2023-05-10T11:26:32.530Z,23.58
2023-05-10T11:29:03.044Z,23.77
2023-05-10T11:31:31.273Z,22.88
2023-05-10T11:34:04.519Z,22.89
2023-05-10T11:36:37.240Z,23.39
2023-05-10T11:39:06.164Z,23.42
2023-05-10T11:41:34.697Z,23.26
2023-05-10T11:44:03.338Z,23.43
2023-05-10T11:46:31.368Z,23.69
2023-05-10T11:49:10.781Z,23.96
2023-05-10T11:51:40.526Z,24.22
2023-05-10T11:54:10.688Z,24.67
2023-05-10T11:56:40.412Z,25.02
2023-05-10T11:59:09.424Z,24.82
2023-05-10T12:01:37.826Z,24.61
2023-05-10T12:04:06.228Z,24.49
2023-05-10T12:06:41.604Z,24.64
2023-05-10T12:09:09.956Z,24.57
2023-05-10T12:11:44.009Z,24.56
2023-05-10T12:14:12.958Z,24.82
2023-05-10T12:16:41.655Z,25.04
2023-05-10T12:19:09.891Z,25.04
2023-05-10T12:21:40.178Z,24.54
2023-05-10T12:24:08.690Z,24.47
2023-05-10T12:26:36.780Z,25.21
2023-05-10T12:29:19.805Z,25.60
2023-05-10T12:31:55.048Z,25.50
2023-05-10T12:34:34.000Z,25.03
2023-05-10T12:37:03.714Z,24.66
2023-05-10T12:39:42.401Z,24.93
2023-05-10T12:42:11.613Z,24.59
2023-05-10T12:44:40.854Z,24.74
2023-05-10T12:47:09.298Z,24.32
2023-05-10T12:49:37.245Z,24.44
2023-05-10T12:52:05.246Z,24.14
2023-05-10T12:54:33.277Z,24.13
2023-05-10T12:57:01.251Z,24.19
2023-05-10T12:59:29.268Z,24.37
2023-05-10T13:01:58.730Z,24.29
2023-05-10T13:04:26.864Z,24.22
2023-05-10T13:06:59.473Z,24.18
2023-05-10T13:09:29.589Z,23.98
2023-05-10T13:11:57.876Z,24.04
2023-05-10T13:14:26.713Z,23.96
2023-05-10T13:16:55.118Z,23.79
2023-05-10T13:19:23.092Z,23.96
2023-05-10T13:21:51.362Z,24.36
2023-05-10T13:24:19.338Z,24.85
2023-05-10T13:26:47.311Z,24.74
2023-05-10T13:29:15.283Z,24.32
2023-05-10T13:31:43.270Z,24.29
2023-05-10T13:34:11.316Z,24.38
2023-05-10T13:36:39.528Z,24.42
2023-05-10T13:39:07.519Z,23.70
2023-05-10T13:41:35.622Z,23.83
2023-05-10T13:44:03.803Z,23.75
2023-05-10T13:46:32.065Z,23.54
2023-05-10T13:49:00.266Z,23.52
2023-05-10T13:51:28.178Z,24.07
2023-05-10T13:53:56.192Z,23.74
2023-05-10T13:56:24.250Z,23.79
2023-05-10T13:58:52.484Z,23.90
2023-05-10T14:01:20.859Z,23.72
2023-05-10T14:03:49.277Z,23.97
2023-05-10T14:06:17.355Z,23.78
2023-05-10T14:08:45.268Z,23.74
2023-05-10T14:11:13.971Z,23.90
2023-05-10T14:13:42.113Z,23.86
2023-05-10T14:16:10.200Z,23.84
2023-05-10T14:18:38.895Z,23.37
2023-05-10T14:21:07.431Z,22.98
2023-05-10T14:23:35.320Z,23.01
2023-05-10T14:26:04.070Z,23.14
2023-05-10T14:28:32.035Z,23.52
2023-05-10T14:31:00.209Z,23.16
2023-05-10T14:33:28.112Z,22.83
2023-05-10T14:35:57.948Z,22.41
2023-05-10T14:38:25.952Z,22.53
2023-05-10T14:40:53.882Z,22.39
2023-05-10T14:43:22.035Z,22.71
2023-05-10T14:45:50.053Z,23.25
2023-05-10T14:48:18.559Z,23.04
2023-05-10T14:50:47.279Z,23.18
2023-05-10T14:53:15.204Z,22.67
2023-05-10T14:55:43.224Z,22.40
2023-05-10T14:58:11.644Z,22.56
2023-05-10T15:00:39.538Z,22.92
2023-05-10T15:03:07.897Z,22.91
2023-05-10T15:05:38.314Z,23.17
2023-05-10T15:08:06.945Z,23.43
2023-05-10T15:10:35.304Z,22.69
2023-05-10T15:13:04.920Z,22.53
2023-05-10T15:15:32.987Z,23.05
2023-05-10T15:18:01.093Z,23.02
2023-05-10T15:20:29.090Z,22.87
2023-05-10T15:22:57.171Z,23.00
2023-05-10T15:25:25.131Z,23.50
2023-05-10T15:27:53.183Z,23.74
2023-05-10T15:30:21.796Z,23.72
2023-05-10T15:32:49.919Z,22.98
2023-05-10T15:35:18.699Z,22.50
2023-05-10T15:37:49.729Z,22.58
2023-05-10T15:40:17.960Z,22.94
2023-05-10T15:42:45.907Z,22.43
2023-05-10T15:45:14.250Z,22.27
2023-05-10T15:47:42.529Z,22.32
2023-05-10T15:50:11.333Z,22.67
2023-05-10T15:52:39.530Z,23.06
2023-05-10T15:55:13.218Z,23.03
2023-05-10T15:57:42.760Z,22.81
2023-05-10T16:00:12.754Z,23.50
2023-05-10T16:02:42.355Z,23.22
2023-05-10T16:05:11.107Z,23.51
2023-05-10T16:07:40.335Z,23.66
2023-05-10T16:10:10.654Z,23.67
2023-05-10T16:12:39.716Z,23.99
2023-05-10T16:15:08.827Z,23.67
2023-05-10T16:17:37.521Z,23.37
2023-05-10T16:20:06.634Z,23.63
2023-05-10T16:22:35.533Z,24.21
2023-05-10T16:25:04.008Z,24.35
2023-05-10T16:27:33.682Z,24.38
2023-05-10T16:30:02.152Z,24.39
2023-05-10T16:32:30.417Z,24.17
2023-05-10T16:34:59.881Z,24.14
2023-05-10T16:37:28.274Z,24.21
2023-05-10T16:39:56.529Z,24.45
2023-05-10T16:42:25.319Z,24.64
2023-05-10T16:44:54.722Z,24.54
2023-05-10T16:47:23.552Z,24.56
2023-05-10T16:49:51.579Z,24.66
2023-05-10T16:52:19.654Z,25.10
2023-05-10T16:54:47.614Z,25.15
2023-05-10T16:57:15.578Z,25.50
2023-05-10T16:59:43.548Z,25.72
2023-05-10T17:02:11.664Z,25.85
2023-05-10T17:04:39.894Z,26.15
2023-05-10T17:07:08.890Z,26.25
2023-05-10T17:09:37.058Z,26.36
2023-05-10T17:12:06.336Z,26.26
2023-05-10T17:14:34.804Z,26.22
2023-05-10T17:17:03.533Z,26.43
2023-05-10T17:19:31.715Z,26.66
2023-05-10T17:21:59.776Z,27.06
2023-05-10T17:24:29.883Z,27.27
2023-05-10T17:26:57.874Z,27.52
2023-05-10T17:29:26.035Z,27.76
2023-05-10T17:31:54.055Z,28.13
2023-05-10T17:34:22.140Z,28.34
2023-05-10T17:36:50.166Z,28.46
2023-05-10T17:39:18.283Z,28.56
2023-05-10T17:41:46.641Z,28.64
2023-05-10T17:44:15.268Z,28.73
2023-05-10T17:46:43.655Z,28.96
2023-05-10T17:49:11.825Z,29.14
2023-05-10T17:51:41.641Z,29.38
2023-05-10T17:54:09.903Z,29.51
2023-05-10T17:56:38.179Z,29.52
2023-05-10T17:59:06.372Z,29.54
2023-05-10T18:01:35.062Z,29.54
2023-05-10T18:04:03.313Z,29.43
2023-05-10T18:06:31.996Z,29.44
2023-05-10T18:08:59.961Z,29.44
2023-05-10T18:11:28.143Z,29.47
2023-05-10T18:13:56.490Z,29.49
2023-05-10T18:16:24.524Z,29.47
2023-05-10T18:18:52.830Z,29.63
2023-05-10T18:21:21.137Z,29.63
2023-05-10T18:23:49.106Z,29.74
2023-05-10T18:26:18.464Z,29.91
2023-05-10T18:28:46.473Z,30.01
2023-05-10T18:31:14.471Z,30.16
2023-05-10T18:33:42.822Z,30.31
2023-05-10T18:36:11.376Z,30.50
2023-05-10T18:38:40.248Z,30.71
2023-05-10T18:41:10.304Z,31.07
2023-05-10T18:43:38.378Z,31.11
2023-05-10T18:46:06.717Z,31.26
2023-05-10T18:48:34.885Z,31.29
2023-05-10T18:51:03.224Z,31.39
2023-05-10T18:53:32.655Z,31.54
2023-05-10T18:56:00.690Z,31.35
2023-05-10T18:58:29.779Z,31.45
2023-05-10T19:00:58.961Z,31.50
2023-05-10T19:03:29.699Z,31.51
2023-05-10T19:05:57.879Z,31.57
2023-05-10T19:08:26.050Z,31.63
2023-05-10T19:10:54.051Z,31.60
2023-05-10T19:13:22.130Z,31.66
2023-05-10T19:16:05.037Z,31.80
2023-05-10T19:18:34.257Z,31.75
2023-05-10T19:21:04.831Z,31.89
2023-05-10T19:23:33.923Z,31.89
2023-05-10T19:26:02.457Z,31.86
2023-05-10T19:28:31.216Z,31.93
2023-05-10T19:30:59.360Z,32.14
2023-05-10T19:33:27.336Z,32.01
2023-05-10T19:35:56.128Z,32.09
2023-05-10T19:38:25.324Z,32.09
2023-05-10T19:40:58.422Z,32.16
2023-05-10T19:43:33.914Z,32.12
2023-05-10T19:46:03.562Z,32.16
2023-05-10T19:48:31.934Z,32.12
2023-05-10T19:51:02.088Z,32.05
2023-05-10T19:53:30.733Z,32.06
2023-05-10T19:56:06.488Z,32.16
2023-05-10T19:58:34.665Z,32.19
2023-05-10T20:01:03.007Z,32.27
2023-05-10T20:03:31.260Z,32.41
2023-05-10T20:05:59.379Z,32.46
2023-05-10T20:08:27.719Z,32.55
2023-05-10T20:10:59.128Z,32.58
2023-05-10T20:13:27.412Z,32.64
2023-05-10T20:15:56.970Z,32.84
2023-05-10T20:18:25.709Z,32.86
2023-05-10T20:20:55.363Z,33.09
2023-05-10T20:23:23.560Z,33.08
2023-05-10T20:25:51.838Z,33.16
2023-05-10T20:28:23.088Z,33.34
2023-05-10T20:30:53.392Z,33.44
2023-05-10T20:33:22.614Z,33.76
2023-05-10T20:35:51.484Z,33.89
2023-05-10T20:38:19.656Z,34.06
2023-05-10T20:40:47.728Z,34.23
2023-05-10T20:43:15.674Z,34.42
2023-05-10T20:45:43.665Z,34.49
2023-05-10T20:48:11.731Z,34.56
2023-05-10T20:50:39.676Z,34.85
2023-05-10T20:53:07.769Z,34.84
2023-05-10T20:55:35.841Z,34.79
2023-05-10T20:58:05.083Z,34.76
2023-05-10T21:00:33.631Z,34.88
2023-05-10T21:03:01.615Z,34.92
2023-05-10T21:05:29.864Z,34.95
2023-05-10T21:07:58.035Z,34.98
2023-05-10T21:10:28.463Z,35.07
2023-05-10T21:12:56.944Z,35.10
2023-05-10T21:15:25.770Z,35.12
2023-05-10T21:17:54.741Z,35.24
2023-05-10T21:20:23.713Z,35.16
2023-05-10T21:22:51.688Z,35.11
2023-05-10T21:25:19.869Z,35.26
2023-05-10T21:27:48.027Z,35.16
2023-05-10T21:30:16.433Z,35.32
2023-05-10T21:32:44.756Z,35.34
2023-05-10T21:35:12.760Z,35.41
2023-05-10T21:37:40.729Z,35.59
2023-05-10T21:40:09.562Z,35.58
2023-05-10T21:42:37.489Z,35.80
2023-05-10T21:45:05.963Z,35.84
2023-05-10T21:47:34.250Z,36.06
2023-05-10T21:50:02.308Z,35.97
2023-05-10T21:52:30.276Z,36.05
2023-05-10T21:54:58.443Z,36.14
2023-05-10T21:57:26.514Z,36.22
2023-05-10T21:59:54.605Z,36.17
2023-05-10T22:02:23.224Z,36.17
2023-05-10T22:04:51.437Z,36.21
2023-05-10T22:07:19.515Z,36.15
2023-05-10T22:09:47.476Z,36.07
2023-05-10T22:12:15.546Z,36.02
2023-05-10T22:14:43.628Z,35.93
2023-05-10T22:17:11.724Z,35.88
2023-05-10T22:19:39.868Z,35.85
2023-05-10T22:22:07.985Z,35.81
2023-05-10T22:24:36.105Z,35.85
2023-05-10T22:27:04.928Z,35.81
2023-05-10T22:29:33.066Z,35.85
2023-05-10T22:32:05.832Z,35.80
2023-05-10T22:34:34.326Z,35.90
2023-05-10T22:37:04.112Z,35.92
2023-05-10T22:39:33.365Z,35.81
2023-05-10T22:42:01.405Z,35.94
2023-05-10T22:44:29.378Z,35.99
2023-05-10T22:46:57.677Z,36.05
2023-05-10T22:49:25.928Z,36.13
2023-05-10T22:51:53.896Z,36.14
2023-05-10T22:54:21.862Z,36.17
2023-05-10T22:56:49.974Z,36.28
2023-05-10T22:59:18.099Z,36.39
2023-05-10T23:01:46.340Z,36.60
2023-05-10T23:04:15.393Z,36.55
2023-05-10T23:06:43.549Z,36.66
2023-05-10T23:09:11.814Z,36.88
2023-05-10T23:11:39.850Z,37.01
2023-05-10T23:14:07.864Z,37.07
2023-05-10T23:16:36.082Z,37.11
2023-05-10T23:19:04.305Z,37.16
2023-05-10T23:21:32.750Z,37.14
2023-05-10T23:24:00.812Z,37.31
2023-05-10T23:26:28.833Z,37.43
2023-05-10T23:28:56.891Z,37.32
2023-05-10T23:31:24.997Z,37.43
2023-05-10T23:33:53.455Z,37.49
2023-05-10T23:36:21.721Z,37.55
2023-05-10T23:38:49.691Z,37.61
2023-05-10T23:41:17.778Z,37.71
2023-05-10T23:43:45.834Z,37.67
2023-05-10T23:46:13.803Z,37.74
2023-05-10T23:48:42.090Z,37.86
2023-05-10T23:51:10.043Z,37.91
2023-05-10T23:53:38.159Z,37.97
2023-05-10T23:56:06.710Z,38.00
2023-05-10T23:58:34.694Z,38.02
